Time;durP1;ratioP1;P1;durP2;ratioP2;P2;SDS_P1;SDS_P2;PMS_P1;PMS_P2;Temp;Humidity;BMP_temperature;BMP_pressure;BME280_temperature;BME280_humidity;BME280_pressure;Samples;Min_cycle;Max_cycle;Signal;HPM_P1;HPM_P2
2023/07/28 04:30:49;;;;;;;3.47;1.35;;;19.70;90.30;;;;;;5669390;23;20052;-75
2023/07/28 04:33:15;;;;;;;6.07;1.55;;;19.60;90.30;;;;;;4920460;29;20472;-75
2023/07/28 04:35:41;;;;;;;3.42;1.15;;;19.70;90.30;;;;;;4909295;29;20076;-76
2023/07/28 04:38:07;;;;;;;4.38;1.25;;;19.60;90.40;;;;;;4903148;29;20380;-76
2023/07/28 04:40:32;;;;;;;3.75;1.08;;;19.60;90.50;;;;;;4904848;29;20184;-75
2023/07/28 04:42:58;;;;;;;2.67;0.95;;;19.60;90.40;;;;;;4921904;29;20051;-76
2023/07/28 04:45:23;;;;;;;4.10;1.00;;;19.70;90.40;;;;;;4921930;29;20028;-76
2023/07/28 04:47:49;;;;;;;2.88;1.00;;;19.70;90.40;;;;;;4921800;29;20535;-76
2023/07/28 04:50:15;;;;;;;4.38;1.10;;;19.60;90.30;;;;;;4910495;29;20040;-75
2023/07/28 04:52:40;;;;;;;2.90;0.93;;;19.60;90.30;;;;;;4916364;29;20032;-84
2023/07/28 04:55:06;;;;;;;2.75;0.93;;;19.60;90.40;;;;;;4893541;29;20036;-79
2023/07/28 04:57:32;;;;;;;3.15;0.90;;;19.60;90.40;;;;;;4902868;29;20385;-83
2023/07/28 04:59:58;;;;;;;2.75;1.02;;;19.70;90.40;;;;;;4903491;29;20025;-85
2023/07/28 05:02:23;;;;;;;2.55;0.85;;;19.60;90.40;;;;;;4919385;29;20091;-83
2023/07/28 05:04:49;;;;;;;3.47;0.80;;;19.70;90.30;;;;;;4929987;29;20024;-83
2023/07/28 05:07:15;;;;;;;7.30;1.20;;;19.70;90.20;;;;;;4915219;29;20098;-83
2023/07/28 05:09:40;;;;;;;1.85;0.73;;;19.70;90.30;;;;;;4930187;29;20020;-84
2023/07/28 05:12:06;;;;;;;2.30;0.73;;;19.70;90.30;;;;;;4921704;29;20074;-80
2023/07/28 05:14:32;;;;;;;3.90;0.70;;;19.70;90.20;;;;;;4900719;29;20032;-78
2023/07/28 05:16:58;;;;;;;2.13;0.70;;;19.70;90.30;;;;;;4914030;29;20043;-85
2023/07/28 05:19:23;;;;;;;1.60;0.57;;;19.70;90.30;;;;;;4923539;29;20036;-83
2023/07/28 05:21:49;;;;;;;1.38;0.50;;;19.70;90.20;;;;;;4940770;29;20518;-83
2023/07/28 05:24:14;;;;;;;2.03;0.65;;;19.70;90.30;;;;;;4900648;29;20104;-78
2023/07/28 05:26:40;;;;;;;1.23;0.50;;;19.70;90.30;;;;;;4902723;29;20030;-84
2023/07/28 05:29:06;;;;;;;1.85;0.70;;;19.70;90.30;;;;;;4902334;29;20097;-80
2023/07/28 05:31:31;;;;;;;1.52;0.63;;;19.70;90.20;;;;;;4914187;29;20048;-83
2023/07/28 05:33:58;;;;;;;1.83;0.60;;;19.70;90.10;;;;;;4919992;29;20415;-83
2023/07/28 05:36:24;;;;;;;2.20;0.75;;;19.70;90.10;;;;;;4925086;29;20371;-82
2023/07/28 05:38:49;;;;;;;1.90;0.60;;;19.80;90.00;;;;;;4908839;29;20025;-80
2023/07/28 05:41:15;;;;;;;1.48;0.70;;;19.80;90.00;;;;;;4901806;29;20071;-83
2023/07/28 05:43:41;;;;;;;1.98;0.52;;;19.80;90.10;;;;;;4900287;29;20480;-82
2023/07/28 05:46:06;;;;;;;1.45;0.70;;;19.80;89.90;;;;;;4902116;29;20411;-82
2023/07/28 05:48:32;;;;;;;1.98;0.80;;;19.90;89.90;;;;;;4902124;29;20024;-82
2023/07/28 05:50:58;;;;;;;2.30;0.80;;;19.90;89.90;;;;;;4912176;29;20380;-83
2023/07/28 05:53:23;;;;;;;2.08;0.82;;;19.90;89.90;;;;;;4919655;29;20051;-81
2023/07/28 05:55:49;;;;;;;2.22;0.90;;;19.90;89.90;;;;;;4911203;29;20108;-82
2023/07/28 05:58:15;;;;;;;2.60;0.77;;;19.90;89.90;;;;;;4900421;29;20032;-83
2023/07/28 06:00:40;;;;;;;5.00;1.00;;;19.90;89.90;;;;;;4899851;29;20060;-83
2023/07/28 06:03:12;;;;;;;2.17;0.80;;;19.90;89.90;;;;;;4886357;29;20060;-83
2023/07/28 06:05:40;;;;;;;2.15;0.80;;;20.00;89.80;;;;;;4912436;29;20102;-83
2023/07/28 06:08:05;;;;;;;2.03;1.00;;;20.10;89.70;;;;;;4919310;29;20396;-82
2023/07/28 06:10:32;;;;;;;4.38;0.88;;;20.10;89.60;;;;;;4917462;29;20146;-82
2023/07/28 06:12:58;;;;;;;1.98;0.82;;;20.10;89.50;;;;;;4919232;29;20498;-87
2023/07/28 06:15:23;;;;;;;4.38;0.80;;;20.20;89.50;;;;;;4912633;29;20028;-83
2023/07/28 06:17:49;;;;;;;3.13;1.08;;;20.10;89.30;;;;;;4892539;29;20039;-83
2023/07/28 06:20:15;;;;;;;3.10;0.90;;;20.20;89.50;;;;;;4900823;29;20048;-83
2023/07/28 06:22:41;;;;;;;3.10;1.13;;;20.30;89.40;;;;;;4903644;29;20512;-83
2023/07/28 06:25:07;;;;;;;2.33;0.90;;;20.30;89.10;;;;;;4918704;29;20044;-84
2023/07/28 06:27:33;;;;;;;4.47;1.10;;;20.40;89.00;;;;;;4907999;29;20042;-85
2023/07/28 06:29:58;;;;;;;2.92;0.93;;;20.50;88.90;;;;;;4919632;29;20079;-84
2023/07/28 06:32:24;;;;;;;2.40;0.98;;;20.50;88.50;;;;;;4920090;29;20392;-84
2023/07/28 06:34:51;;;;;;;2.70;1.23;;;20.50;88.70;;;;;;4919803;29;20028;-85
2023/07/28 06:37:17;;;;;;;3.13;1.00;;;20.50;88.70;;;;;;4903401;29;20024;-84
2023/07/28 06:39:42;;;;;;;2.33;0.80;;;20.60;88.70;;;;;;4902719;29;20036;-83
2023/07/28 06:42:08;;;;;;;3.55;1.10;;;20.60;88.30;;;;;;4904404;29;20024;-83
2023/07/28 06:44:34;;;;;;;3.40;1.05;;;20.60;88.40;;;;;;4919014;29;20048;-84
2023/07/28 06:46:59;;;;;;;3.88;1.00;;;20.70;88.40;;;;;;4905462;29;20395;-83
2023/07/28 06:49:25;;;;;;;2.58;1.13;;;20.80;88.20;;;;;;4900557;29;20028;-84
2023/07/28 06:51:51;;;;;;;2.35;1.00;;;20.80;87.80;;;;;;4912142;29;20056;-84
2023/07/28 06:54:18;;;;;;;2.53;1.05;;;20.80;88.00;;;;;;4906346;29;20041;-83
2023/07/28 06:56:43;;;;;;;3.05;1.00;;;20.80;87.90;;;;;;4898664;29;20033;-83
2023/07/28 06:59:10;;;;;;;3.13;1.00;;;20.90;87.40;;;;;;4901395;29;20038;-84
2023/07/28 07:01:35;;;;;;;3.13;1.00;;;21.00;87.70;;;;;;4918850;29;20036;-84
2023/07/28 07:04:01;;;;;;;1.88;0.88;;;21.10;87.10;;;;;;4919234;29;20463;-84
2023/07/28 07:06:27;;;;;;;2.42;0.93;;;21.30;86.90;;;;;;4919370;29;20071;-84
2023/07/28 07:08:52;;;;;;;2.80;1.10;;;21.30;86.80;;;;;;4907802;29;20484;-84
2023/07/28 07:11:18;;;;;;;3.83;1.25;;;21.10;86.90;;;;;;4915814;29;20031;-84
2023/07/28 07:13:43;;;;;;;3.58;1.20;;;21.10;87.10;;;;;;4900211;29;20119;-83
2023/07/28 07:16:16;;;;;;;2.85;1.20;;;21.10;87.00;;;;;;4899800;29;20407;-83
2023/07/28 07:18:42;;;;;;;;;;;21.10;86.90;;;;;;4900197;29;20115;-83
2023/07/28 07:21:09;;;;;;;2.25;0.95;;;21.10;86.90;;;;;;4900275;29;20014;-83
2023/07/28 07:23:34;;;;;;;3.10;1.17;;;21.00;86.90;;;;;;4900195;29;20045;-83
2023/07/28 07:26:00;;;;;;;3.28;1.02;;;20.90;87.20;;;;;;4900082;29;20511;-83
2023/07/28 07:28:26;;;;;;;3.75;1.23;;;20.90;87.30;;;;;;4902637;29;20040;-83
2023/07/28 07:30:53;;;;;;;3.67;1.48;;;20.90;87.40;;;;;;4915994;29;20131;-84
2023/07/28 07:33:18;;;;;;;3.45;1.00;;;20.90;87.30;;;;;;4906667;29;20068;-84
2023/07/28 07:35:44;;;;;;;3.47;1.30;;;20.90;87.20;;;;;;4899919;29;20032;-84
2023/07/28 07:38:10;;;;;;;3.88;1.02;;;21.00;87.30;;;;;;4899690;29;20495;-84
2023/07/28 07:40:36;;;;;;;4.45;1.30;;;21.00;86.80;;;;;;4900300;29;20484;-84
2023/07/28 07:43:03;;;;;;;6.05;1.10;;;21.20;86.60;;;;;;4899881;29;20033;-84
2023/07/28 07:45:32;;;;;;;3.53;1.05;;;21.70;86.50;;;;;;4904186;29;20053;-83
2023/07/28 07:47:58;;;;;;;2.97;1.13;;;21.80;85.80;;;;;;4917279;29;20036;-85
2023/07/28 07:50:24;;;;;;;6.03;1.48;;;21.80;85.80;;;;;;4916772;29;20052;-91
2023/07/28 07:52:50;;;;;;;5.13;1.48;;;21.70;85.10;;;;;;4904075;29;20185;-92
2023/07/28 07:55:15;;;;;;;5.72;1.50;;;21.70;85.70;;;;;;4900204;29;20033;-92
2023/07/28 07:57:41;;;;;;;3.10;1.30;;;21.60;85.30;;;;;;4904317;29;20047;-92
2023/07/28 08:00:08;;;;;;;2.33;1.20;;;21.50;85.50;;;;;;4905222;29;20035;-92
2023/07/28 08:02:34;;;;;;;4.50;1.40;;;21.40;85.60;;;;;;4895453;29;20028;-92
2023/07/28 08:05:00;;;;;;;4.03;1.27;;;21.40;86.10;;;;;;4904575;29;20052;-89
2023/07/28 08:07:26;;;;;;;2.78;1.08;;;21.40;85.90;;;;;;4904131;29;20032;-90
2023/07/28 08:09:52;;;;;;;3.40;1.17;;;21.30;86.30;;;;;;4903001;29;20052;-89
2023/07/28 08:12:18;;;;;;;3.15;1.10;;;21.30;85.90;;;;;;4902707;29;20035;-92
2023/07/28 08:14:45;;;;;;;5.72;1.33;;;21.40;85.90;;;;;;4910652;29;20020;-90
2023/07/28 08:17:12;;;;;;;4.32;1.30;;;21.50;85.50;;;;;;4891073;29;20025;-91
2023/07/28 08:19:37;;;;;;;2.83;1.23;;;21.60;85.30;;;;;;4887585;29;20040;-84
2023/07/28 08:22:03;;;;;;;2.92;1.20;;;21.70;85.50;;;;;;4896126;29;20502;-84
2023/07/28 08:24:29;;;;;;;4.82;1.35;;;21.60;85.00;;;;;;4901981;29;20107;-84
2023/07/28 08:26:55;;;;;;;3.50;1.33;;;21.70;85.00;;;;;;4918371;29;20036;-83
2023/07/28 08:29:20;;;;;;;3.22;1.40;;;21.60;85.10;;;;;;4918995;29;20116;-83
2023/07/28 08:31:46;;;;;;;3.40;1.48;;;21.60;84.70;;;;;;4919106;29;20523;-83
2023/07/28 08:34:12;;;;;;;3.30;1.42;;;21.60;84.30;;;;;;4903625;29;20032;-83
2023/07/28 08:36:38;;;;;;;4.38;1.30;;;21.70;84.80;;;;;;4921127;29;20432;-84
2023/07/28 08:39:05;;;;;;;3.22;1.27;;;21.80;84.80;;;;;;4921705;29;20111;-83
2023/07/28 08:41:30;;;;;;;3.97;1.40;;;22.00;84.50;;;;;;4904825;29;20031;-83
2023/07/28 08:43:57;;;;;;;3.60;1.60;;;22.00;84.70;;;;;;4917698;29;20032;-83
2023/07/28 08:46:23;;;;;;;3.83;1.40;;;22.10;84.10;;;;;;4920341;29;20056;-83
2023/07/28 08:48:49;;;;;;;3.30;1.50;;;22.60;83.30;;;;;;4919806;29;20040;-83
2023/07/28 08:51:14;;;;;;;3.40;1.60;;;22.70;82.30;;;;;;4921470;29;20588;-83
2023/07/28 08:53:40;;;;;;;3.55;1.40;;;22.60;82.20;;;;;;4902494;29;20187;-83
2023/07/28 08:56:06;;;;;;;3.15;1.58;;;22.70;81.80;;;;;;4918631;29;20017;-83
2023/07/28 08:58:32;;;;;;;3.72;1.70;;;22.50;80.90;;;;;;4921391;29;20036;-84
2023/07/28 09:01:01;;;;;;;3.22;1.20;;;22.60;81.70;;;;;;4900115;29;20031;-80
2023/07/28 09:03:27;;;;;;;3.70;1.50;;;22.50;81.80;;;;;;4920625;29;20051;-80
2023/07/28 09:06:00;;;;;;;4.30;1.50;;;22.30;81.50;;;;;;4919696;29;20039;-80
2023/07/28 09:08:26;;;;;;;3.58;1.38;;;22.20;82.20;;;;;;4902054;29;20032;-80
2023/07/28 09:10:52;;;;;;;3.83;1.40;;;22.10;82.20;;;;;;4919666;29;20032;-80
2023/07/28 09:13:19;;;;;;;3.72;1.33;;;22.20;81.70;;;;;;4921028;29;20499;-80
2023/07/28 09:15:46;;;;;;;4.05;1.23;;;22.60;80.30;;;;;;4903748;29;20043;-80
2023/07/28 09:18:16;;;;;;;3.08;1.38;;;22.70;80.30;;;;;;4914983;29;20115;-80
2023/07/28 09:20:42;;;;;;;4.68;1.40;;;22.70;80.10;;;;;;4920148;29;20035;-80
2023/07/28 09:23:09;;;;;;;4.43;1.60;;;22.80;80.10;;;;;;4920024;29;20024;-80
2023/07/28 09:25:37;;;;;;;4.22;1.38;;;23.00;80.50;;;;;;4918306;29;20414;-80
2023/07/28 09:28:02;;;;;;;2.95;1.50;;;24.20;78.30;;;;;;4920237;29;20027;-80
2023/07/28 09:30:46;;;;;;;5.00;1.60;;;25.70;75.70;;;;;;4918379;29;20036;-80
2023/07/28 09:33:12;;;;;;;3.45;1.25;;;27.40;69.80;;;;;;4920636;29;20042;-80
2023/07/28 09:35:48;;;;;;;3.72;1.52;;;28.60;64.00;;;;;;4920735;29;20487;-80
2023/07/28 09:38:15;;;;;;;2.40;1.30;;;29.10;61.50;;;;;;4913570;29;20028;-80
2023/07/28 09:40:41;;;;;;;2.80;1.30;;;29.50;58.90;;;;;;4920156;29;20020;-81
2023/07/28 09:43:07;;;;;;;3.05;2.00;;;29.90;59.10;;;;;;4920368;29;20110;-79
2023/07/28 09:45:35;;;;;;;2.60;1.25;;;30.20;55.10;;;;;;4918761;29;20044;-80
2023/07/28 09:48:04;;;;;;;3.28;1.20;;;30.10;56.20;;;;;;4903302;29;20020;-77
2023/07/28 09:50:32;;;;;;;2.97;1.23;;;30.00;54.60;;;;;;4920291;29;20043;-77
2023/07/28 09:53:02;;;;;;;2.55;1.23;;;29.10;58.00;;;;;;4902174;29;20032;-77
2023/07/28 09:55:28;;;;;;;1.95;1.05;;;28.30;59.00;;;;;;4900125;29;20170;-77
2023/07/28 09:57:57;;;;;;;2.63;1.17;;;27.60;60.90;;;;;;4920085;29;20140;-77
2023/07/28 10:00:23;;;;;;;2.30;1.23;;;27.00;62.80;;;;;;4900976;29;20028;-77
2023/07/28 10:02:52;;;;;;;2.78;1.00;;;26.60;63.70;;;;;;4919319;29;20103;-77
2023/07/28 10:05:19;;;;;;;2.85;1.20;;;26.20;66.80;;;;;;4919058;29;20415;-78
2023/07/28 10:07:48;;;;;;;2.30;1.10;;;25.80;66.20;;;;;;4917517;29;20225;-77
2023/07/28 10:10:14;;;;;;;3.75;1.30;;;25.30;67.10;;;;;;4904669;29;20055;-77
2023/07/28 10:12:48;;;;;;;3.97;1.35;;;25.00;67.90;;;;;;4919285;29;20024;-77
2023/07/28 10:15:16;;;;;;;2.75;1.30;;;24.80;68.80;;;;;;4919425;29;20107;-77
2023/07/28 10:17:52;;;;;;;2.75;1.30;;;24.50;70.00;;;;;;4914196;29;20206;-77
2023/07/28 10:20:38;;;;;;;4.03;1.17;;;24.50;70.40;;;;;;4918690;29;20112;-77
2023/07/28 10:23:17;;;;;;;5.25;1.27;;;24.40;69.80;;;;;;4916538;29;20034;-77
2023/07/28 10:25:44;;;;;;;2.10;1.10;;;24.30;70.90;;;;;;4919175;29;20087;-77
2023/07/28 10:28:38;;;;;;;2.60;1.25;;;24.30;70.80;;;;;;4919688;29;20036;-77
2023/07/28 10:31:05;;;;;;;2.22;1.10;;;24.10;70.20;;;;;;4916464;29;20167;-77
2023/07/28 10:33:34;;;;;;;3.28;1.45;;;23.90;71.00;;;;;;4902663;29;20174;-77
2023/07/28 10:36:35;;;;;;;3.08;1.30;;;23.80;71.40;;;;;;4917832;29;20027;-77
2023/07/28 10:39:17;;;;;;;2.90;1.20;;;23.60;71.40;;;;;;4910448;29;20048;-77
2023/07/28 10:42:02;;;;;;;2.53;1.20;;;23.50;72.80;;;;;;4918445;29;20107;-77
2023/07/28 10:44:29;;;;;;;4.32;1.30;;;23.60;72.20;;;;;;4918618;29;20024;-77
2023/07/28 10:46:55;;;;;;;4.00;1.38;;;23.60;72.20;;;;;;4916959;29;20083;-77
2023/07/28 10:49:20;;;;;;;3.80;1.35;;;23.90;72.20;;;;;;4898420;29;20091;-77
2023/07/28 10:51:46;;;;;;;3.72;1.33;;;24.00;71.80;;;;;;4910081;29;20501;-77
2023/07/28 10:54:16;;;;;;;2.67;1.10;;;24.30;71.70;;;;;;4884084;29;20028;-78
2023/07/28 10:56:42;;;;;;;3.55;1.30;;;24.50;70.60;;;;;;4901001;29;20021;-89
2023/07/28 10:59:08;;;;;;;4.50;1.60;;;24.80;71.40;;;;;;4884116;29;20028;-79
2023/07/28 11:01:38;;;;;;;3.30;1.60;;;25.00;70.40;;;;;;4910804;29;20737;-79
2023/07/28 11:04:15;;;;;;;2.97;1.60;;;25.10;70.00;;;;;;4917553;29;20032;-79
2023/07/28 11:06:43;;;;;;;3.88;1.50;;;25.40;70.00;;;;;;4900843;29;20032;-82
2023/07/28 11:09:10;;;;;;;6.35;1.52;;;25.40;68.70;;;;;;4909405;29;20044;-81
2023/07/28 11:11:40;;;;;;;3.85;1.70;;;25.20;66.90;;;;;;4926101;29;20028;-81
2023/07/28 11:14:07;;;;;;;3.30;1.40;;;25.00;68.60;;;;;;4903344;29;20518;-86
2023/07/28 11:16:34;;;;;;;3.90;1.90;;;25.00;69.90;;;;;;4919196;29;20028;-83
2023/07/28 11:19:02;;;;;;;3.78;1.27;;;25.00;68.60;;;;;;4900549;29;20115;-83
2023/07/28 11:21:28;;;;;;;2.65;1.30;;;25.30;68.90;;;;;;4883442;29;20067;-87
2023/07/28 11:23:54;;;;;;;3.17;1.30;;;25.40;69.70;;;;;;4883349;29;20558;-84
2023/07/28 11:26:22;;;;;;;2.60;1.30;;;25.70;69.10;;;;;;4883838;29;20029;-88
2023/07/28 11:28:48;;;;;;;2.45;1.15;;;25.60;64.60;;;;;;4883689;29;20119;-80
2023/07/28 11:31:13;;;;;;;3.90;1.50;;;25.50;66.10;;;;;;4903139;29;20056;-81
2023/07/28 11:33:39;;;;;;;3.00;1.38;;;25.50;65.30;;;;;;4919325;29;20614;-82
2023/07/28 11:36:06;;;;;;;2.78;1.30;;;25.50;65.30;;;;;;4919407;29;20028;-79
2023/07/28 11:38:33;;;;;;;3.70;1.30;;;25.60;67.00;;;;;;4918712;29;20028;-80
2023/07/28 11:40:59;;;;;;;2.58;1.40;;;25.80;65.80;;;;;;4897537;29;20036;-78
2023/07/28 11:43:26;;;;;;;2.75;1.50;;;25.90;65.10;;;;;;4900318;29;20037;-80
2023/07/28 11:45:51;;;;;;;2.97;1.45;;;26.00;64.50;;;;;;4912595;29;20173;-81
2023/07/28 11:48:17;;;;;;;2.45;1.20;;;26.30;65.20;;;;;;4898659;29;20098;-80
2023/07/28 11:50:45;;;;;;;3.35;1.20;;;26.30;64.40;;;;;;4917084;29;20028;-80
2023/07/28 11:53:11;;;;;;;3.65;1.60;;;26.30;63.80;;;;;;4913319;29;20501;-80
2023/07/28 11:55:38;;;;;;;2.67;1.27;;;26.30;63.50;;;;;;4918466;29;20028;-80
2023/07/28 11:58:05;;;;;;;2.92;1.20;;;26.60;64.20;;;;;;4918290;29;20469;-80
2023/07/28 12:00:35;;;;;;;3.42;1.40;;;26.60;64.50;;;;;;4917709;29;20071;-80
2023/07/28 12:03:29;;;;;;;2.72;1.40;;;26.40;63.80;;;;;;4918709;29;20028;-80
2023/07/28 12:06:09;;;;;;;3.03;1.10;;;26.40;62.70;;;;;;4919304;29;20028;-80
2023/07/28 12:08:36;;;;;;;5.25;2.17;;;26.30;62.60;;;;;;4919416;29;20048;-80
2023/07/28 12:11:02;;;;;;;3.25;1.60;;;26.20;61.20;;;;;;4921264;29;20036;-80
2023/07/28 12:13:28;;;;;;;4.50;1.50;;;26.20;62.00;;;;;;4904902;29;20024;-80
2023/07/28 12:15:54;;;;;;;3.40;1.50;;;26.10;61.20;;;;;;4919257;29;20051;-80
2023/07/28 12:18:20;;;;;;;2.97;1.50;;;26.10;61.20;;;;;;4919745;29;20062;-80
2023/07/28 12:20:47;;;;;;;2.42;1.20;;;26.10;60.50;;;;;;4922117;29;20032;-80
2023/07/28 12:23:18;;;;;;;2.00;1.02;;;26.20;60.10;;;;;;4919217;29;20030;-79
2023/07/28 12:25:44;;;;;;;2.53;1.00;;;26.30;62.40;;;;;;4921624;29;20103;-80
2023/07/28 12:28:10;;;;;;;2.58;1.02;;;26.40;59.30;;;;;;4920204;29;20040;-80
2023/07/28 12:30:37;;;;;;;2.53;1.13;;;26.50;59.20;;;;;;4904310;29;20055;-80
2023/07/28 12:33:03;;;;;;;2.97;1.05;;;26.50;60.30;;;;;;4921770;29;20024;-80
2023/07/28 12:35:31;;;;;;;2.22;0.85;;;26.50;59.80;;;;;;4921816;29;20024;-80
2023/07/28 12:38:05;;;;;;;2.65;1.05;;;26.60;59.40;;;;;;4903210;29;20107;-79
2023/07/28 12:40:32;;;;;;;2.65;0.98;;;26.50;58.80;;;;;;4920649;29;20407;-80
2023/07/28 12:42:59;;;;;;;3.88;1.20;;;26.60;57.20;;;;;;4918429;29;20035;-80
2023/07/28 12:45:25;;;;;;;2.17;1.00;;;26.60;57.60;;;;;;4920835;29;20032;-80
2023/07/28 12:47:55;;;;;;;3.03;1.10;;;26.60;57.40;;;;;;4900264;29;20081;-79
2023/07/28 12:50:22;;;;;;;6.97;1.40;;;26.80;59.50;;;;;;4903657;29;20036;-80
2023/07/28 12:52:48;;;;;;;2.55;1.02;;;26.60;56.90;;;;;;4920542;29;20043;-80
2023/07/28 12:55:15;;;;;;;2.47;1.17;;;26.30;57.60;;;;;;4919290;29;20027;-79
2023/07/28 12:57:41;;;;;;;2.95;1.17;;;26.30;59.30;;;;;;4903975;29;20103;-80
2023/07/28 13:00:12;;;;;;;2.92;1.20;;;26.20;57.80;;;;;;4921098;29;20107;-80
2023/07/28 13:02:43;;;;;;;4.15;1.00;;;26.30;60.10;;;;;;4917597;29;20379;-79
2023/07/28 13:05:10;;;;;;;2.08;1.08;;;26.40;59.40;;;;;;4920042;29;20055;-79
2023/07/28 13:07:37;;;;;;;3.03;1.20;;;26.50;58.60;;;;;;4911073;29;20032;-80
2023/07/28 13:10:03;;;;;;;2.83;1.15;;;26.60;60.70;;;;;;4918495;29;20024;-80
2023/07/28 13:12:29;;;;;;;2.60;1.10;;;26.60;56.80;;;;;;4918571;29;20025;-80
2023/07/28 13:14:55;;;;;;;2.90;1.05;;;26.70;59.80;;;;;;4916698;29;20032;-80
2023/07/28 13:17:21;;;;;;;2.50;1.02;;;26.70;56.30;;;;;;4918018;29;20025;-80
2023/07/28 13:19:46;;;;;;;2.67;1.30;;;26.60;57.10;;;;;;4918591;29;20036;-80
2023/07/28 13:22:12;;;;;;;2.40;0.90;;;26.40;56.00;;;;;;4917985;29;20036;-80
2023/07/28 13:24:38;;;;;;;3.28;1.42;;;26.50;56.90;;;;;;4903513;29;20028;-79
2023/07/28 13:27:04;;;;;;;2.88;1.13;;;26.60;57.50;;;;;;4904295;29;20058;-80
2023/07/28 13:29:30;;;;;;;3.22;1.17;;;26.70;57.30;;;;;;4914246;29;20075;-79
2023/07/28 13:32:01;;;;;;;3.08;1.23;;;26.80;56.10;;;;;;4918177;29;20044;-80
2023/07/28 13:34:27;;;;;;;3.70;1.20;;;26.80;57.20;;;;;;4920689;29;20510;-80
2023/07/28 13:36:55;;;;;;;4.93;1.30;;;26.80;54.80;;;;;;4919032;29;20514;-80
2023/07/28 13:39:20;;;;;;;3.08;1.30;;;26.80;56.00;;;;;;4892924;29;20036;-79
2023/07/28 13:41:46;;;;;;;2.92;1.30;;;26.80;54.90;;;;;;4917390;29;20025;-78
2023/07/28 13:44:11;;;;;;;4.13;1.35;;;26.80;57.00;;;;;;4918407;29;20047;-79
2023/07/28 13:46:37;;;;;;;2.92;1.10;;;26.80;56.30;;;;;;4916562;29;20032;-78
2023/07/28 13:49:02;;;;;;;2.42;1.17;;;26.70;56.40;;;;;;4920243;29;20036;-79
2023/07/28 13:51:29;;;;;;;3.50;1.33;;;26.80;55.70;;;;;;4920204;29;20645;-79
2023/07/28 13:53:54;;;;;;;2.67;1.05;;;26.80;55.60;;;;;;4911659;29;20033;-79
2023/07/28 13:56:20;;;;;;;3.42;1.10;;;26.90;54.70;;;;;;4901344;29;20453;-79
2023/07/28 13:58:46;;;;;;;3.03;1.40;;;27.10;55.90;;;;;;4911713;29;20043;-80
2023/07/28 14:01:11;;;;;;;5.30;1.33;;;27.00;54.30;;;;;;4917828;29;20044;-81
2023/07/28 14:03:37;;;;;;;2.67;1.17;;;26.80;55.30;;;;;;4915981;29;20064;-80
2023/07/28 14:06:03;;;;;;;3.60;1.10;;;26.60;54.30;;;;;;4914779;29;20861;-80
2023/07/28 14:08:28;;;;;;;3.88;1.48;;;26.50;53.90;;;;;;4915574;29;20032;-79
2023/07/28 14:10:55;;;;;;;3.10;1.40;;;26.70;55.50;;;;;;4918653;29;20024;-80
2023/07/28 14:13:22;;;;;;;3.72;1.55;;;26.70;54.20;;;;;;4919113;29;20126;-80
2023/07/28 14:15:47;;;;;;;2.38;1.23;;;26.50;54.20;;;;;;4917487;29;20019;-80
2023/07/28 14:18:13;;;;;;;3.00;1.25;;;26.50;54.20;;;;;;4917774;29;20033;-80
2023/07/28 14:20:38;;;;;;;2.78;1.40;;;26.40;53.80;;;;;;4902702;29;20031;-80
2023/07/28 14:23:21;;;;;;;4.25;1.50;;;26.40;54.80;;;;;;4916444;29;20036;-80
2023/07/28 14:25:47;;;;;;;3.63;1.17;;;26.70;54.90;;;;;;4915744;29;20440;-80
2023/07/28 14:28:16;;;;;;;2.83;1.30;;;26.50;53.20;;;;;;4893505;29;20070;-80
2023/07/28 14:30:46;;;;;;;3.20;1.35;;;26.50;55.10;;;;;;4906394;29;20440;-80
2023/07/28 14:33:13;;;;;;;3.38;1.60;;;26.80;53.50;;;;;;4901935;29;20039;-80
2023/07/28 14:35:38;;;;;;;4.13;2.65;;;27.00;52.60;;;;;;4918085;29;20028;-80
2023/07/28 14:38:04;;;;;;;2.67;1.30;;;27.00;53.10;;;;;;4914130;29;20088;-80
2023/07/28 14:40:30;;;;;;;2.97;1.27;;;27.10;54.10;;;;;;4911040;29;20868;-80
2023/07/28 14:42:55;;;;;;;3.67;1.50;;;26.90;52.00;;;;;;4918257;29;20032;-80
2023/07/28 14:45:21;;;;;;;2.95;1.58;;;27.00;54.00;;;;;;4905799;29;20035;-79
2023/07/28 14:47:46;;;;;;;2.80;1.30;;;27.00;52.50;;;;;;4912999;29;20032;-80
2023/07/28 14:50:12;;;;;;;3.03;1.58;;;26.90;52.00;;;;;;4888257;29;20033;-80
2023/07/28 14:52:39;;;;;;;3.20;1.40;;;26.80;53.30;;;;;;4883550;29;20033;-79
2023/07/28 14:55:05;;;;;;;4.70;1.60;;;26.90;53.30;;;;;;4883231;29;20021;-80
2023/07/28 14:57:30;;;;;;;2.63;1.30;;;27.00;54.20;;;;;;4893770;29;20042;-80
2023/07/28 14:59:56;;;;;;;3.75;1.90;;;27.00;52.20;;;;;;4918899;29;20034;-79
2023/07/28 15:02:21;;;;;;;3.40;1.40;;;26.90;52.10;;;;;;4898213;29;20044;-80
2023/07/28 15:04:48;;;;;;;3.85;1.60;;;26.60;53.00;;;;;;4898535;29;20084;-80
2023/07/28 15:07:14;;;;;;;3.30;1.33;;;26.50;53.40;;;;;;4906000;29;20067;-80
2023/07/28 15:09:40;;;;;;;4.22;1.38;;;26.30;53.00;;;;;;4904860;29;20029;-80
2023/07/28 15:12:06;;;;;;;5.05;1.80;;;26.20;54.00;;;;;;4916153;29;20738;-80
2023/07/28 15:14:32;;;;;;;6.97;1.92;;;26.30;54.50;;;;;;4918976;29;20440;-79
2023/07/28 15:16:58;;;;;;;4.43;1.40;;;26.30;55.00;;;;;;4903009;29;20084;-81
2023/07/28 15:19:23;;;;;;;3.15;1.38;;;26.20;53.90;;;;;;4918923;29;20048;-81
2023/07/28 15:21:49;;;;;;;4.18;1.63;;;26.30;54.30;;;;;;4919278;29;20391;-79
2023/07/28 15:24:15;;;;;;;3.72;1.52;;;26.20;54.20;;;;;;4916017;29;20048;-79
2023/07/28 15:26:40;;;;;;;3.45;1.52;;;26.30;53.30;;;;;;4888624;29;20029;-79
2023/07/28 15:29:07;;;;;;;3.10;1.50;;;26.40;54.30;;;;;;4917400;29;20043;-78
2023/07/28 15:31:32;;;;;;;4.40;1.45;;;26.80;53.30;;;;;;4913409;29;20048;-79
2023/07/28 15:33:58;;;;;;;2.97;1.30;;;27.10;53.90;;;;;;4913429;29;20075;-77
2023/07/28 15:36:23;;;;;;;3.10;1.58;;;27.30;52.30;;;;;;4905141;29;20032;-77
2023/07/28 15:38:49;;;;;;;3.22;1.60;;;27.20;52.70;;;;;;4916541;29;20452;-77
2023/07/28 15:41:15;;;;;;;2.97;1.30;;;27.20;51.80;;;;;;4915852;29;20050;-78
2023/07/28 15:43:40;;;;;;;3.08;1.45;;;27.00;53.40;;;;;;4900839;29;20028;-77
2023/07/28 15:46:07;;;;;;;2.97;1.48;;;27.00;53.80;;;;;;4918820;29;20024;-77
2023/07/28 15:48:33;;;;;;;3.47;1.40;;;26.80;53.20;;;;;;4916467;29;20051;-77
2023/07/28 15:50:58;;;;;;;4.00;1.38;;;26.70;53.80;;;;;;4912111;29;20112;-77
2023/07/28 15:53:24;;;;;;;2.70;1.30;;;26.60;54.90;;;;;;4895706;29;20112;-78
2023/07/28 15:55:50;;;;;;;3.40;1.60;;;26.40;55.10;;;;;;4918781;29;20031;-77
2023/07/28 15:58:15;;;;;;;3.08;1.33;;;26.40;55.20;;;;;;4896689;29;20051;-77
2023/07/28 16:00:41;;;;;;;2.83;1.33;;;26.50;56.60;;;;;;4915296;29;20403;-77
2023/07/28 16:03:10;;;;;;;3.38;1.05;;;26.50;57.60;;;;;;4908393;29;20043;-77
2023/07/28 16:05:39;;;;;;;3.22;1.40;;;26.40;57.60;;;;;;4918901;29;20403;-78
2023/07/28 16:08:08;;;;;;;2.38;1.15;;;26.20;57.80;;;;;;4918264;29;20032;-78
2023/07/28 16:10:34;;;;;;;2.40;1.30;;;25.90;58.40;;;;;;4919702;29;20107;-78
2023/07/28 16:12:59;;;;;;;6.03;1.58;;;25.80;59.20;;;;;;4899664;29;20059;-78
2023/07/28 16:15:27;;;;;;;4.45;1.65;;;25.70;58.90;;;;;;4917133;29;20032;-77
2023/07/28 16:17:53;;;;;;;4.05;1.65;;;25.80;59.10;;;;;;4915677;29;20127;-78
2023/07/28 16:20:19;;;;;;;3.72;1.85;;;25.90;58.80;;;;;;4913440;29;20072;-78
2023/07/28 16:22:44;;;;;;;3.42;1.40;;;25.80;58.70;;;;;;4916596;29;20036;-78
2023/07/28 16:25:10;;;;;;;3.03;1.42;;;25.80;58.80;;;;;;4914908;29;20036;-79
2023/07/28 16:27:36;;;;;;;4.65;1.25;;;25.80;58.50;;;;;;4917981;29;20036;-78
2023/07/28 16:30:05;;;;;;;3.08;1.42;;;25.80;57.90;;;;;;4901242;29;20028;-79
2023/07/28 16:32:31;;;;;;;3.35;1.20;;;25.70;58.20;;;;;;4918024;29;20048;-79
2023/07/28 16:34:57;;;;;;;2.72;1.10;;;25.70;58.30;;;;;;4916436;29;20029;-78
2023/07/28 16:37:23;;;;;;;2.25;1.10;;;25.60;58.60;;;;;;4901522;29;20380;-78
2023/07/28 16:39:51;;;;;;;4.75;1.30;;;25.60;58.50;;;;;;4918419;29;20068;-78
2023/07/28 16:42:17;;;;;;;3.40;1.05;;;25.60;58.90;;;;;;4901295;29;20048;-78
2023/07/28 16:44:42;;;;;;;2.90;1.38;;;25.50;58.30;;;;;;4915595;29;20047;-78
2023/07/28 16:47:08;;;;;;;3.03;1.17;;;25.50;58.80;;;;;;4916358;29;20024;-78
2023/07/28 16:49:34;;;;;;;2.95;1.13;;;25.50;58.80;;;;;;4921381;29;20083;-78
2023/07/28 16:51:59;;;;;;;3.00;0.90;;;25.30;58.80;;;;;;4904118;29;20024;-78
2023/07/28 16:54:27;;;;;;;2.42;1.10;;;25.20;59.30;;;;;;4919093;29;20095;-78
2023/07/28 16:56:56;;;;;;;2.25;1.10;;;25.30;59.70;;;;;;4904599;29;20027;-78
2023/07/28 16:59:22;;;;;;;2.75;1.15;;;25.30;60.00;;;;;;4918065;29;20091;-78
2023/07/28 17:01:50;;;;;;;2.45;1.08;;;25.30;59.30;;;;;;4904454;29;20770;-83
2023/07/28 17:04:18;;;;;;;2.78;1.17;;;25.30;59.10;;;;;;4921362;29;20036;-80
2023/07/28 17:06:43;;;;;;;2.38;1.08;;;25.20;59.40;;;;;;4904251;29;20028;-77
2023/07/28 17:09:09;;;;;;;1.95;0.98;;;25.10;59.30;;;;;;4896361;29;20033;-77
2023/07/28 17:11:37;;;;;;;2.17;1.05;;;25.10;59.10;;;;;;4920960;29;20511;-77
2023/07/28 17:14:03;;;;;;;2.28;0.98;;;25.20;60.10;;;;;;4919728;29;20027;-78
2023/07/28 17:16:28;;;;;;;2.30;1.00;;;25.10;59.70;;;;;;4913563;29;20356;-79